createdAt,value
2022-09-20T00:00:09.525Z,16.06
2022-09-20T00:00:19.529Z,16.06
2022-09-20T00:00:29.526Z,16.07
2022-09-20T00:00:39.528Z,16.07
2022-09-20T00:00:49.565Z,16.06
2022-09-20T00:00:59.586Z,16.06
2022-09-20T00:01:09.579Z,16.05
2022-09-20T00:01:19.605Z,16.05
2022-09-20T00:01:29.589Z,16.07
2022-09-20T00:01:39.579Z,16.03
2022-09-20T00:01:49.535Z,16.02
2022-09-20T00:01:59.532Z,16.04
2022-09-20T00:02:09.534Z,16.05
2022-09-20T00:02:19.535Z,16.04
2022-09-20T00:02:29.535Z,16.05
2022-09-20T00:02:39.536Z,16.04
2022-09-20T00:02:49.537Z,16.04
2022-09-20T00:02:59.536Z,16.05
2022-09-20T00:03:09.543Z,16.03
2022-09-20T00:03:19.538Z,16.03
2022-09-20T00:03:29.540Z,16.02
2022-09-20T00:03:39.541Z,16.04
2022-09-20T00:03:49.541Z,16.04
2022-09-20T00:03:59.543Z,16.02
2022-09-20T00:04:09.597Z,16.04
2022-09-20T00:04:19.542Z,16.03
2022-09-20T00:04:29.543Z,16.05
2022-09-20T00:04:39.580Z,16.05
2022-09-20T00:04:49.606Z,16.07
2022-09-20T00:04:59.629Z,16.05
2022-09-20T00:05:09.605Z,16.05
2022-09-20T00:05:19.604Z,16.06
2022-09-20T00:05:29.629Z,16.06
2022-09-20T00:05:39.551Z,16.07
2022-09-20T00:05:49.551Z,16.07
2022-09-20T00:05:59.554Z,16.07
2022-09-20T00:06:09.554Z,16.08
2022-09-20T00:06:19.557Z,16.09
2022-09-20T00:06:29.557Z,16.09
2022-09-20T00:06:39.572Z,16.08
2022-09-20T00:06:49.557Z,16.11
2022-09-20T00:06:59.560Z,16.12
2022-09-20T00:07:09.560Z,16.12
2022-09-20T00:07:19.562Z,16.13
2022-09-20T00:07:29.563Z,16.13
2022-09-20T00:07:39.561Z,16.14
2022-09-20T00:07:49.564Z,16.13
2022-09-20T00:07:59.569Z,16.11
2022-09-20T00:08:09.564Z,16.12
2022-09-20T00:08:19.566Z,16.13
2022-09-20T00:08:29.567Z,16.10
2022-09-20T00:08:39.574Z,16.11
2022-09-20T00:08:49.565Z,16.12
2022-09-20T00:08:59.638Z,16.12
2022-09-20T00:09:09.569Z,16.11
2022-09-20T00:09:19.573Z,16.10
2022-09-20T00:09:29.568Z,16.10
2022-09-20T00:09:39.575Z,16.10
2022-09-20T00:09:49.570Z,16.10
2022-09-20T00:09:59.570Z,16.11
2022-09-20T00:10:09.571Z,16.10
2022-09-20T00:10:19.575Z,16.10
2022-09-20T00:10:29.573Z,16.10
2022-09-20T00:10:39.580Z,16.11
2022-09-20T00:10:49.575Z,16.10
2022-09-20T00:10:59.576Z,16.08
2022-09-20T00:11:09.574Z,16.10
2022-09-20T00:11:19.576Z,16.09
2022-09-20T00:11:29.578Z,16.10
2022-09-20T00:11:39.598Z,16.10
2022-09-20T00:11:49.581Z,16.10
2022-09-20T00:11:59.584Z,16.10
2022-09-20T00:12:09.582Z,16.08
2022-09-20T00:12:19.585Z,16.08
2022-09-20T00:12:29.585Z,16.08
2022-09-20T00:12:39.584Z,16.09
2022-09-20T00:12:49.585Z,16.08
2022-09-20T00:12:59.585Z,16.10
2022-09-20T00:13:09.618Z,16.09
2022-09-20T00:13:19.585Z,16.11
2022-09-20T00:13:29.588Z,16.10
2022-09-20T00:13:39.596Z,16.11
2022-09-20T00:13:49.590Z,16.12
2022-09-20T00:13:59.598Z,16.13
2022-09-20T00:14:09.575Z,16.13
2022-09-20T00:14:19.591Z,16.14
2022-09-20T00:14:29.594Z,16.13
2022-09-20T00:14:39.595Z,16.11
2022-09-20T00:14:49.594Z,16.12
2022-09-20T00:14:59.595Z,16.11
2022-09-20T00:15:09.599Z,16.11
2022-09-20T00:15:19.597Z,16.11
2022-09-20T00:15:29.600Z,16.11
2022-09-20T00:15:39.611Z,16.11
2022-09-20T00:15:49.598Z,16.13
2022-09-20T00:15:59.608Z,16.12
2022-09-20T00:16:09.632Z,16.13
2022-09-20T00:16:19.682Z,16.13
2022-09-20T00:16:29.655Z,16.15
2022-09-20T00:16:39.676Z,16.15
2022-09-20T00:16:49.657Z,16.14
2022-09-20T00:16:59.674Z,16.12
2022-09-20T00:17:09.607Z,16.13
2022-09-20T00:17:19.606Z,16.14
2022-09-20T00:17:29.607Z,16.12
2022-09-20T00:17:39.610Z,16.15
2022-09-20T00:17:49.607Z,16.16
2022-09-20T00:17:59.611Z,16.16
2022-09-20T00:18:09.610Z,16.15
2022-09-20T00:18:19.610Z,16.15
2022-09-20T00:18:29.610Z,16.16
2022-09-20T00:18:39.611Z,16.17
2022-09-20T00:18:49.617Z,16.16
2022-09-20T00:18:59.613Z,16.18
2022-09-20T00:19:09.652Z,16.17
2022-09-20T00:19:19.642Z,16.18
2022-09-20T00:19:29.616Z,16.16
2022-09-20T00:19:39.616Z,16.17
2022-09-20T00:19:49.639Z,16.18
2022-09-20T00:19:59.618Z,16.17
2022-09-20T00:20:09.620Z,16.18
2022-09-20T00:20:19.623Z,16.18
2022-09-20T00:20:29.623Z,16.17
2022-09-20T00:20:39.623Z,16.17
2022-09-20T00:20:49.627Z,16.19
2022-09-20T00:20:59.624Z,16.17
2022-09-20T00:21:09.628Z,16.18
2022-09-20T00:21:19.629Z,16.18
2022-09-20T00:21:29.626Z,16.18
2022-09-20T00:21:39.660Z,16.18
2022-09-20T00:21:49.633Z,16.17
2022-09-20T00:21:59.631Z,16.18
2022-09-20T00:22:09.630Z,16.16
2022-09-20T00:22:19.632Z,16.17
2022-09-20T00:22:29.633Z,16.17
2022-09-20T00:22:39.634Z,16.18
2022-09-20T00:22:49.634Z,16.18
2022-09-20T00:22:59.636Z,16.18
2022-09-20T00:23:09.640Z,16.17
2022-09-20T00:23:19.639Z,16.17
2022-09-20T00:23:29.640Z,16.18
2022-09-20T00:23:39.638Z,16.17
2022-09-20T00:23:49.649Z,16.17
2022-09-20T00:23:59.642Z,16.15
2022-09-20T00:24:09.641Z,16.15
2022-09-20T00:24:19.652Z,16.14
2022-09-20T00:24:29.641Z,16.15
2022-09-20T00:24:39.645Z,16.14
2022-09-20T00:24:49.653Z,16.14
2022-09-20T00:24:59.647Z,16.11
2022-09-20T00:25:09.672Z,16.11
2022-09-20T00:25:19.648Z,16.10
2022-09-20T00:25:29.646Z,16.11
2022-09-20T00:25:39.655Z,16.09
2022-09-20T00:25:49.650Z,16.10
2022-09-20T00:25:59.651Z,16.12
2022-09-20T00:26:09.652Z,16.12
2022-09-20T00:26:19.656Z,16.10
2022-09-20T00:26:29.653Z,16.13
2022-09-20T00:26:39.655Z,16.12
2022-09-20T00:26:49.657Z,16.12
2022-09-20T00:26:59.656Z,16.12
2022-09-20T00:27:09.658Z,16.12
2022-09-20T00:27:19.659Z,16.13
2022-09-20T00:27:29.683Z,16.15
2022-09-20T00:27:39.659Z,16.15
2022-09-20T00:27:49.658Z,16.15
2022-09-20T00:27:59.658Z,16.15
2022-09-20T00:28:09.662Z,16.15
2022-09-20T00:28:19.660Z,16.17
2022-09-20T00:28:29.661Z,16.17
2022-09-20T00:28:39.667Z,16.17
2022-09-20T00:28:49.667Z,16.16
2022-09-20T00:28:59.662Z,16.16
2022-09-20T00:29:09.667Z,16.16
2022-09-20T00:29:19.664Z,16.17
2022-09-20T00:29:29.664Z,16.15
2022-09-20T00:29:39.666Z,16.13
2022-09-20T00:29:49.669Z,16.13
2022-09-20T00:29:59.655Z,16.12
2022-09-20T00:30:09.673Z,16.13
2022-09-20T00:30:19.672Z,16.11
2022-09-20T00:30:29.674Z,16.12
2022-09-20T00:30:39.673Z,16.12
2022-09-20T00:30:49.673Z,16.14
2022-09-20T00:30:59.674Z,16.12
2022-09-20T00:31:09.676Z,16.10
2022-09-20T00:31:19.700Z,16.11
2022-09-20T00:31:29.707Z,16.12
2022-09-20T00:31:39.727Z,16.11
2022-09-20T00:31:49.733Z,16.12
2022-09-20T00:31:59.737Z,16.11
2022-09-20T00:32:09.715Z,16.11
2022-09-20T00:32:19.678Z,16.12
2022-09-20T00:32:29.680Z,16.12
2022-09-20T00:32:39.682Z,16.11
2022-09-20T00:32:49.680Z,16.12
2022-09-20T00:32:59.683Z,16.10
2022-09-20T00:33:09.683Z,16.10
2022-09-20T00:33:19.684Z,16.10
2022-09-20T00:33:29.690Z,16.10
2022-09-20T00:33:39.689Z,16.08
2022-09-20T00:33:49.698Z,16.07
2022-09-20T00:33:59.688Z,16.08
2022-09-20T00:34:09.701Z,16.08
2022-09-20T00:34:19.689Z,16.07
2022-09-20T00:34:29.692Z,16.09
2022-09-20T00:34:39.694Z,16.08
2022-09-20T00:34:49.692Z,16.08
2022-09-20T00:34:59.692Z,16.08
2022-09-20T00:35:09.692Z,16.09
2022-09-20T00:35:19.692Z,16.08
2022-09-20T00:35:29.694Z,16.09
2022-09-20T00:35:39.696Z,16.09
2022-09-20T00:35:49.703Z,16.07
2022-09-20T00:35:59.715Z,16.08
2022-09-20T00:36:09.704Z,16.08
2022-09-20T00:36:19.700Z,16.04
2022-09-20T00:36:29.699Z,16.04
2022-09-20T00:36:39.700Z,16.03
2022-09-20T00:36:49.707Z,16.03
2022-09-20T00:36:59.708Z,16.05
2022-09-20T00:37:09.704Z,16.04
2022-09-20T00:37:19.704Z,16.03
2022-09-20T00:37:29.720Z,16.02
2022-09-20T00:37:39.692Z,16.03
2022-09-20T00:37:49.712Z,16.01
2022-09-20T00:37:59.714Z,16.01
2022-09-20T00:38:09.708Z,16.02
2022-09-20T00:38:19.711Z,16.02
2022-09-20T00:38:29.709Z,16.03
2022-09-20T00:38:39.711Z,16.02
2022-09-20T00:38:49.714Z,16.03
2022-09-20T00:38:59.716Z,16.03
2022-09-20T00:39:09.715Z,16.02
2022-09-20T00:39:19.700Z,16.02
2022-09-20T00:39:29.718Z,16.01
2022-09-20T00:39:39.716Z,16.02
2022-09-20T00:39:49.718Z,16.01
2022-09-20T00:39:59.780Z,16.01
2022-09-20T00:40:09.886Z,16.00
2022-09-20T00:40:19.764Z,16.02
2022-09-20T00:40:29.862Z,16.03
2022-09-20T00:40:39.809Z,16.02
2022-09-20T00:40:49.724Z,16.02
2022-09-20T00:40:59.724Z,16.04
2022-09-20T00:41:09.726Z,16.03
2022-09-20T00:41:19.729Z,16.05
2022-09-20T00:41:29.730Z,16.05
2022-09-20T00:41:39.729Z,16.04
2022-09-20T00:41:49.730Z,16.04
2022-09-20T00:41:59.736Z,16.05
2022-09-20T00:42:09.729Z,16.04
2022-09-20T00:42:19.737Z,16.04
2022-09-20T00:42:29.729Z,16.03
2022-09-20T00:42:39.732Z,16.03
2022-09-20T00:42:49.734Z,16.03
2022-09-20T00:42:59.742Z,16.02
2022-09-20T00:43:09.734Z,16.02
2022-09-20T00:43:19.735Z,16.00
2022-09-20T00:43:29.738Z,16.00
2022-09-20T00:43:39.738Z,16.01
2022-09-20T00:43:49.741Z,16.01
2022-09-20T00:43:59.740Z,16.01
2022-09-20T00:44:09.743Z,16.01
2022-09-20T00:44:19.743Z,16.00
2022-09-20T00:44:29.742Z,16.00
2022-09-20T00:44:39.744Z,16.01
2022-09-20T00:44:49.748Z,16.00
2022-09-20T00:44:59.746Z,15.98
2022-09-20T00:45:09.747Z,15.99
2022-09-20T00:45:19.748Z,15.99
2022-09-20T00:45:29.791Z,16.00
2022-09-20T00:45:39.811Z,16.01
2022-09-20T00:45:49.813Z,16.00
2022-09-20T00:45:59.803Z,16.00
2022-09-20T00:46:09.798Z,16.02
2022-09-20T00:46:19.836Z,16.04
2022-09-20T00:46:29.752Z,16.02
2022-09-20T00:46:39.754Z,16.03
2022-09-20T00:46:49.755Z,16.03
2022-09-20T00:46:59.753Z,16.05
2022-09-20T00:47:09.755Z,16.03
2022-09-20T00:47:19.758Z,16.04
2022-09-20T00:47:29.755Z,16.02
2022-09-20T00:47:39.758Z,16.04
2022-09-20T00:47:49.755Z,16.05
2022-09-20T00:47:59.761Z,16.04
2022-09-20T00:48:09.772Z,16.05
2022-09-20T00:48:19.760Z,16.02
2022-09-20T00:48:29.761Z,16.06
2022-09-20T00:48:39.763Z,16.03
2022-09-20T00:48:49.763Z,16.03
2022-09-20T00:48:59.766Z,16.03
2022-09-20T00:49:09.764Z,16.04
2022-09-20T00:49:19.787Z,16.05
2022-09-20T00:49:29.768Z,16.04
2022-09-20T00:49:39.767Z,16.03
2022-09-20T00:49:49.799Z,16.03
2022-09-20T00:49:59.768Z,16.03
2022-09-20T00:50:09.769Z,16.02
2022-09-20T00:50:19.770Z,16.00
2022-09-20T00:50:29.771Z,15.98
2022-09-20T00:50:39.772Z,15.98
2022-09-20T00:50:49.772Z,15.98
2022-09-20T00:50:59.776Z,15.99
2022-09-20T00:51:09.774Z,15.98
2022-09-20T00:51:19.779Z,15.98
2022-09-20T00:51:29.780Z,15.97
2022-09-20T00:51:39.778Z,15.98
2022-09-20T00:51:49.794Z,15.95
2022-09-20T00:51:59.782Z,15.94
2022-09-20T00:52:09.782Z,15.94
2022-09-20T00:52:19.780Z,15.95
2022-09-20T00:52:29.781Z,15.96
2022-09-20T00:52:39.788Z,15.95
2022-09-20T00:52:49.780Z,15.96
2022-09-20T00:52:59.784Z,15.97
2022-09-20T00:53:09.784Z,15.95
2022-09-20T00:53:19.785Z,15.95
2022-09-20T00:53:29.784Z,15.96
2022-09-20T00:53:39.785Z,15.96
2022-09-20T00:53:49.788Z,15.94
2022-09-20T00:53:59.790Z,15.96
2022-09-20T00:54:09.786Z,15.96
2022-09-20T00:54:20.637Z,15.93
2022-09-20T00:54:29.788Z,15.95
2022-09-20T00:54:39.788Z,15.95
2022-09-20T00:54:49.810Z,15.95
2022-09-20T00:54:59.792Z,15.93
2022-09-20T00:55:09.792Z,15.94
2022-09-20T00:55:19.795Z,15.93
2022-09-20T00:55:29.794Z,15.93
2022-09-20T00:55:39.796Z,15.94
2022-09-20T00:55:49.799Z,15.95
2022-09-20T00:55:59.797Z,15.95
2022-09-20T00:56:09.800Z,15.94
2022-09-20T00:56:19.799Z,15.94
2022-09-20T00:56:29.801Z,15.94
2022-09-20T00:56:39.805Z,15.94
2022-09-20T00:56:49.818Z,15.93
2022-09-20T00:56:59.804Z,15.93
2022-09-20T00:57:09.807Z,15.95
2022-09-20T00:57:19.807Z,15.95
2022-09-20T00:57:29.808Z,15.96
2022-09-20T00:57:39.808Z,15.93
2022-09-20T00:57:49.813Z,15.95
2022-09-20T00:57:59.810Z,15.94
2022-09-20T00:58:09.810Z,15.94
2022-09-20T00:58:19.818Z,15.94
2022-09-20T00:58:29.815Z,15.95
2022-09-20T00:58:39.812Z,15.95
2022-09-20T00:58:49.813Z,15.95
2022-09-20T00:58:59.811Z,15.95
2022-09-20T00:59:09.817Z,15.94
2022-09-20T00:59:19.821Z,15.98
2022-09-20T00:59:29.818Z,15.97
2022-09-20T00:59:39.824Z,15.99
2022-09-20T00:59:49.824Z,16.00
2022-09-20T00:59:59.821Z,16.01
2022-09-20T01:00:09.822Z,16.01
2022-09-20T01:00:19.824Z,16.03
2022-09-20T01:00:29.824Z,16.02
2022-09-20T01:00:39.825Z,16.01
2022-09-20T01:00:49.899Z,16.03
2022-09-20T01:00:59.933Z,16.04
2022-09-20T01:01:09.879Z,16.05
2022-09-20T01:01:19.957Z,16.05
2022-09-20T01:01:29.902Z,16.05
2022-09-20T01:01:39.889Z,16.07
2022-09-20T01:01:49.851Z,16.06
2022-09-20T01:01:59.900Z,16.06
2022-09-20T01:02:09.868Z,16.04
2022-09-20T01:02:19.866Z,16.03
2022-09-20T01:02:29.918Z,16.02
2022-09-20T01:02:39.872Z,16.02
2022-09-20T01:02:49.929Z,16.03
2022-09-20T01:02:59.840Z,16.02
2022-09-20T01:03:09.839Z,16.00
2022-09-20T01:03:19.839Z,15.99
2022-09-20T01:03:29.838Z,15.98
2022-09-20T01:03:39.842Z,15.98
2022-09-20T01:03:49.840Z,15.98
2022-09-20T01:03:59.844Z,15.98
2022-09-20T01:04:09.843Z,15.98
2022-09-20T01:04:19.843Z,15.97
2022-09-20T01:04:29.845Z,15.95
2022-09-20T01:04:39.843Z,15.97
2022-09-20T01:04:49.846Z,15.95
2022-09-20T01:04:59.846Z,15.95
2022-09-20T01:05:09.846Z,15.94
2022-09-20T01:05:19.845Z,15.95
2022-09-20T01:05:29.862Z,15.93
2022-09-20T01:05:39.848Z,15.91
2022-09-20T01:05:49.848Z,15.89
2022-09-20T01:05:59.847Z,15.91
2022-09-20T01:06:09.852Z,15.89
2022-09-20T01:06:19.849Z,15.89
2022-09-20T01:06:29.851Z,15.89
2022-09-20T01:06:39.852Z,15.88
2022-09-20T01:06:49.870Z,15.89
2022-09-20T01:06:59.853Z,15.89
2022-09-20T01:07:09.856Z,15.90
2022-09-20T01:07:19.860Z,15.90
2022-09-20T01:07:29.856Z,15.89
2022-09-20T01:07:39.858Z,15.91
2022-09-20T01:07:49.858Z,15.90
2022-09-20T01:07:59.865Z,15.89
2022-09-20T01:08:09.866Z,15.89
2022-09-20T01:08:19.861Z,15.90
2022-09-20T01:08:29.863Z,15.92
2022-09-20T01:08:39.864Z,15.90
2022-09-20T01:08:49.864Z,15.90
2022-09-20T01:08:59.865Z,15.91
2022-09-20T01:09:09.872Z,15.89
2022-09-20T01:09:19.866Z,15.89
2022-09-20T01:09:29.868Z,15.90
2022-09-20T01:09:39.871Z,15.89
2022-09-20T01:09:49.872Z,15.89
2022-09-20T01:09:59.875Z,15.86
2022-09-20T01:10:09.872Z,15.86
2022-09-20T01:10:19.872Z,15.87
2022-09-20T01:10:29.875Z,15.87
2022-09-20T01:10:39.875Z,15.90
2022-09-20T01:10:49.875Z,15.88
2022-09-20T01:10:59.878Z,15.88
2022-09-20T01:11:09.878Z,15.91
2022-09-20T01:11:19.879Z,15.90
2022-09-20T01:11:29.904Z,15.91
2022-09-20T01:11:39.880Z,15.91
2022-09-20T01:11:49.903Z,15.91
2022-09-20T01:11:59.885Z,15.91
2022-09-20T01:12:09.885Z,15.91
2022-09-20T01:12:19.907Z,15.91
2022-09-20T01:12:29.886Z,15.91
2022-09-20T01:12:39.888Z,15.90
2022-09-20T01:12:49.887Z,15.90
2022-09-20T01:12:59.887Z,15.93
2022-09-20T01:13:09.895Z,15.94
2022-09-20T01:13:19.894Z,15.95
2022-09-20T01:13:29.892Z,15.94
2022-09-20T01:13:39.894Z,15.93
2022-09-20T01:13:49.895Z,15.94
2022-09-20T01:13:59.894Z,15.95
2022-09-20T01:14:09.896Z,15.95
2022-09-20T01:14:19.896Z,15.95
2022-09-20T01:14:29.900Z,15.95
2022-09-20T01:14:39.900Z,15.95
2022-09-20T01:14:49.899Z,15.96
2022-09-20T01:14:59.900Z,15.96
2022-09-20T01:15:09.900Z,15.95
2022-09-20T01:15:19.905Z,15.96
2022-09-20T01:15:29.921Z,15.96
2022-09-20T01:15:39.902Z,15.95
2022-09-20T01:15:49.906Z,15.96
2022-09-20T01:15:59.906Z,15.96
2022-09-20T01:16:09.975Z,15.95
2022-09-20T01:16:19.938Z,15.96
2022-09-20T01:16:29.965Z,15.96
2022-09-20T01:16:39.949Z,15.96
2022-09-20T01:16:49.969Z,15.96
2022-09-20T01:17:00.033Z,15.93
2022-09-20T01:17:09.911Z,15.93
2022-09-20T01:17:19.913Z,15.93
2022-09-20T01:17:29.917Z,15.95
2022-09-20T01:17:39.914Z,15.94
2022-09-20T01:17:49.915Z,15.96
2022-09-20T01:17:59.919Z,15.95
2022-09-20T01:18:09.916Z,15.94
2022-09-20T01:18:19.935Z,15.94
2022-09-20T01:18:29.918Z,15.95
2022-09-20T01:18:39.920Z,15.94
2022-09-20T01:18:49.920Z,15.94
2022-09-20T01:18:59.921Z,15.93
2022-09-20T01:19:09.922Z,15.93
2022-09-20T01:19:19.921Z,15.93
2022-09-20T01:19:29.921Z,15.93
2022-09-20T01:19:39.927Z,15.94
2022-09-20T01:19:50.017Z,15.94
2022-09-20T01:19:59.926Z,15.93
2022-09-20T01:20:09.928Z,15.93
2022-09-20T01:20:19.929Z,15.93
2022-09-20T01:20:29.926Z,15.93
2022-09-20T01:20:39.929Z,15.93
2022-09-20T01:20:49.930Z,15.93
2022-09-20T01:20:59.930Z,15.92
2022-09-20T01:21:09.960Z,15.93
2022-09-20T01:21:19.934Z,15.93
2022-09-20T01:21:29.938Z,15.92
2022-09-20T01:21:39.934Z,15.94
2022-09-20T01:21:49.949Z,15.93
2022-09-20T01:21:59.939Z,15.93
2022-09-20T01:22:09.938Z,15.92
2022-09-20T01:22:19.935Z,15.93
2022-09-20T01:22:29.936Z,15.92
2022-09-20T01:22:39.943Z,15.91
2022-09-20T01:22:49.938Z,15.92
2022-09-20T01:22:59.941Z,15.92
2022-09-20T01:23:09.946Z,15.92
2022-09-20T01:23:19.953Z,15.92
2022-09-20T01:23:29.943Z,15.91
2022-09-20T01:23:39.953Z,15.89
2022-09-20T01:23:49.944Z,15.90
2022-09-20T01:23:59.945Z,15.89
2022-09-20T01:24:09.946Z,15.89
2022-09-20T01:24:19.948Z,15.88
2022-09-20T01:24:29.949Z,15.89
2022-09-20T01:24:39.954Z,15.87
2022-09-20T01:24:49.969Z,15.88
2022-09-20T01:24:59.949Z,15.86
2022-09-20T01:25:09.952Z,15.86
2022-09-20T01:25:19.954Z,15.86
2022-09-20T01:25:29.958Z,15.85
2022-09-20T01:25:39.954Z,15.85
2022-09-20T01:25:49.958Z,15.85
2022-09-20T01:25:59.955Z,15.83
2022-09-20T01:26:09.958Z,15.86
2022-09-20T01:26:19.960Z,15.85
2022-09-20T01:26:29.961Z,15.83
2022-09-20T01:26:39.945Z,15.86
2022-09-20T01:26:49.983Z,15.85
2022-09-20T01:26:59.962Z,15.88
2022-09-20T01:27:09.968Z,15.88
2022-09-20T01:27:19.967Z,15.88
2022-09-20T01:27:29.966Z,15.89
2022-09-20T01:27:39.967Z,15.89
2022-09-20T01:27:49.970Z,15.89
2022-09-20T01:27:59.969Z,15.87
2022-09-20T01:28:09.972Z,15.87
2022-09-20T01:28:19.973Z,15.86
2022-09-20T01:28:29.973Z,15.87
2022-09-20T01:28:39.972Z,15.88
2022-09-20T01:28:49.976Z,15.85
2022-09-20T01:28:59.974Z,15.86
2022-09-20T01:29:09.974Z,15.84
2022-09-20T01:29:19.974Z,15.84
2022-09-20T01:29:29.975Z,15.85
2022-09-20T01:29:39.977Z,15.87
2022-09-20T01:29:49.979Z,15.86
2022-09-20T01:29:59.983Z,15.87
2022-09-20T01:30:09.979Z,15.86
2022-09-20T01:30:19.980Z,15.88
2022-09-20T01:30:29.979Z,15.85
2022-09-20T01:30:39.981Z,15.85
2022-09-20T01:30:49.987Z,15.85
2022-09-20T01:30:59.982Z,15.84
2022-09-20T01:31:09.987Z,15.84
2022-09-20T01:31:20.053Z,15.84
2022-09-20T01:31:30.064Z,15.84
2022-09-20T01:31:40.022Z,15.83
2022-09-20T01:31:50.025Z,15.82
2022-09-20T01:32:00.041Z,15.83
2022-09-20T01:32:10.061Z,15.83
2022-09-20T01:32:19.989Z,15.82
2022-09-20T01:32:29.992Z,15.83
2022-09-20T01:32:39.986Z,15.83
2022-09-20T01:32:49.988Z,15.82
2022-09-20T01:32:59.995Z,15.82
2022-09-20T01:33:09.988Z,15.84
2022-09-20T01:33:19.991Z,15.85
2022-09-20T01:33:29.992Z,15.84
2022-09-20T01:33:39.991Z,15.86
2022-09-20T01:33:49.994Z,15.86
2022-09-20T01:33:59.992Z,15.86
2022-09-20T01:34:09.993Z,15.87
2022-09-20T01:34:19.996Z,15.87
2022-09-20T01:34:29.997Z,15.88
2022-09-20T01:34:39.996Z,15.88
2022-09-20T01:34:49.999Z,15.89
2022-09-20T01:34:59.997Z,15.90
2022-09-20T01:35:09.999Z,15.91
2022-09-20T01:35:20.010Z,15.91
2022-09-20T01:35:30.003Z,15.91
2022-09-20T01:35:40.001Z,15.90
2022-09-20T01:35:50.004Z,15.91
2022-09-20T01:36:00.003Z,15.92
2022-09-20T01:36:10.008Z,15.92
2022-09-20T01:36:20.004Z,15.91
2022-09-20T01:36:30.006Z,15.92
2022-09-20T01:36:40.005Z,15.93
2022-09-20T01:36:50.053Z,15.93
2022-09-20T01:37:00.006Z,15.91
2022-09-20T01:37:10.008Z,15.90
2022-09-20T01:37:20.009Z,15.92
2022-09-20T01:37:30.008Z,15.89
2022-09-20T01:37:40.013Z,15.89
2022-09-20T01:37:50.015Z,15.88
2022-09-20T01:38:00.011Z,15.87
2022-09-20T01:38:10.019Z,15.87
2022-09-20T01:38:20.015Z,15.84
2022-09-20T01:38:30.019Z,15.83
2022-09-20T01:38:40.034Z,15.82
2022-09-20T01:38:50.017Z,15.83
2022-09-20T01:39:00.019Z,15.83
2022-09-20T01:39:10.020Z,15.82
2022-09-20T01:39:20.021Z,15.82
2022-09-20T01:39:30.020Z,15.81
2022-09-20T01:39:40.021Z,15.80
2022-09-20T01:39:50.024Z,15.79
2022-09-20T01:40:00.093Z,15.79
2022-09-20T01:40:10.128Z,15.78
2022-09-20T01:40:20.106Z,15.79
2022-09-20T01:40:30.099Z,15.78
2022-09-20T01:40:40.073Z,15.78
2022-09-20T01:40:50.025Z,15.78
2022-09-20T01:41:00.023Z,15.80
2022-09-20T01:41:10.026Z,15.79
2022-09-20T01:41:20.030Z,15.80
2022-09-20T01:41:30.028Z,15.79
2022-09-20T01:41:40.030Z,15.80
2022-09-20T01:41:50.030Z,15.82
2022-09-20T01:42:00.034Z,15.83
2022-09-20T01:42:10.032Z,15.82
2022-09-20T01:42:20.032Z,15.82
2022-09-20T01:42:30.036Z,15.85
2022-09-20T01:42:40.032Z,15.83
2022-09-20T01:42:50.036Z,15.84
2022-09-20T01:43:00.048Z,15.84
2022-09-20T01:43:10.046Z,15.85
2022-09-20T01:43:20.040Z,15.85
2022-09-20T01:43:30.043Z,15.84
2022-09-20T01:43:40.042Z,15.86
2022-09-20T01:43:50.040Z,15.86
2022-09-20T01:44:00.043Z,15.88
2022-09-20T01:44:10.041Z,15.88
2022-09-20T01:44:20.042Z,15.88
2022-09-20T01:44:30.045Z,15.88
2022-09-20T01:44:40.044Z,15.88
2022-09-20T01:44:50.045Z,15.88
2022-09-20T01:45:00.051Z,15.88
2022-09-20T01:45:10.046Z,15.90
2022-09-20T01:45:20.048Z,15.90
2022-09-20T01:45:30.156Z,15.89
2022-09-20T01:45:40.078Z,15.90
2022-09-20T01:45:50.157Z,15.90
2022-09-20T01:46:00.117Z,15.88
2022-09-20T01:46:10.120Z,15.91
2022-09-20T01:46:20.112Z,15.91
2022-09-20T01:46:30.064Z,15.93
2022-09-20T01:46:40.060Z,15.92
2022-09-20T01:46:50.060Z,15.93
2022-09-20T01:47:00.082Z,15.93
2022-09-20T01:47:10.063Z,15.91
2022-09-20T01:47:20.060Z,15.91
2022-09-20T01:47:30.058Z,15.92
2022-09-20T01:47:40.061Z,15.92
2022-09-20T01:47:50.065Z,15.91
2022-09-20T01:48:00.063Z,15.93
2022-09-20T01:48:10.069Z,15.92
2022-09-20T01:48:20.064Z,15.92
2022-09-20T01:48:30.063Z,15.92
2022-09-20T01:48:40.067Z,15.92
2022-09-20T01:48:50.068Z,15.93
2022-09-20T01:49:00.070Z,15.95
2022-09-20T01:49:10.069Z,15.96
2022-09-20T01:49:20.070Z,15.95
2022-09-20T01:49:30.071Z,15.95
2022-09-20T01:49:40.071Z,15.96
2022-09-20T01:49:50.098Z,15.95
2022-09-20T01:50:00.077Z,15.96
2022-09-20T01:50:10.073Z,15.96
2022-09-20T01:50:20.080Z,15.97
2022-09-20T01:50:30.075Z,15.98
2022-09-20T01:50:40.075Z,16.00
2022-09-20T01:50:50.077Z,15.98
2022-09-20T01:51:00.079Z,15.98
2022-09-20T01:51:10.083Z,15.99
2022-09-20T01:51:20.081Z,15.99
2022-09-20T01:51:30.082Z,15.99
2022-09-20T01:51:40.083Z,16.00
2022-09-20T01:51:50.102Z,16.01
2022-09-20T01:52:00.084Z,16.00
2022-09-20T01:52:10.089Z,16.02
2022-09-20T01:52:20.087Z,16.02
2022-09-20T01:52:30.087Z,16.03
2022-09-20T01:52:40.087Z,16.03
2022-09-20T01:52:50.086Z,16.04
2022-09-20T01:53:00.088Z,16.01
2022-09-20T01:53:10.087Z,16.04
2022-09-20T01:53:20.089Z,16.04
2022-09-20T01:53:30.092Z,16.05
2022-09-20T01:53:40.092Z,16.07
2022-09-20T01:53:50.097Z,16.06
2022-09-20T01:54:00.103Z,16.07
2022-09-20T01:54:10.099Z,16.07
2022-09-20T01:54:20.096Z,16.09
2022-09-20T01:54:30.101Z,16.08
2022-09-20T01:54:40.101Z,16.07
2022-09-20T01:54:50.125Z,16.07
2022-09-20T01:55:00.104Z,16.08
2022-09-20T01:55:10.101Z,16.09
2022-09-20T01:55:20.105Z,16.08
2022-09-20T01:55:30.102Z,16.08
2022-09-20T01:55:40.102Z,16.09
2022-09-20T01:55:50.103Z,16.09
2022-09-20T01:56:00.111Z,16.08
2022-09-20T01:56:10.104Z,16.07
2022-09-20T01:56:20.105Z,16.09
2022-09-20T01:56:30.106Z,16.08
2022-09-20T01:56:40.107Z,16.09
2022-09-20T01:56:50.123Z,16.11
2022-09-20T01:57:00.109Z,16.10
2022-09-20T01:57:10.108Z,16.09
2022-09-20T01:57:23.723Z,16.10
2022-09-20T01:57:31.118Z,16.06
2022-09-20T01:57:40.112Z,16.06
2022-09-20T01:57:50.113Z,16.08
2022-09-20T01:58:00.100Z,16.08
2022-09-20T01:58:10.116Z,16.07
2022-09-20T01:58:20.114Z,16.09
2022-09-20T01:58:30.115Z,16.08
2022-09-20T01:58:40.116Z,16.09
2022-09-20T01:59:01.875Z,16.09
2022-09-20T01:59:22.689Z,16.05
2022-09-20T01:59:23.604Z,16.04
2022-09-20T01:59:24.018Z,16.02
2022-09-20T01:59:30.631Z,16.02
2022-09-20T01:59:40.118Z,16.02
2022-09-20T01:59:50.126Z,16.04
2022-09-20T02:00:00.123Z,16.05
2022-09-20T02:00:10.121Z,16.06
2022-09-20T02:00:20.127Z,16.09
2022-09-20T02:00:30.137Z,16.09
2022-09-20T02:00:40.121Z,16.09
2022-09-20T02:00:50.200Z,16.10
2022-09-20T02:01:00.219Z,16.11
2022-09-20T02:01:10.172Z,16.10
2022-09-20T02:01:20.136Z,16.12
2022-09-20T02:01:30.169Z,16.13
2022-09-20T02:01:40.223Z,16.14
2022-09-20T02:01:50.142Z,16.15
2022-09-20T02:02:00.227Z,16.14
2022-09-20T02:02:10.210Z,16.16
2022-09-20T02:02:20.237Z,16.14
2022-09-20T02:02:30.350Z,16.15
2022-09-20T02:02:40.200Z,16.16
2022-09-20T02:02:50.196Z,16.16
2022-09-20T02:03:00.131Z,16.14
2022-09-20T02:03:10.137Z,16.15
2022-09-20T02:03:20.133Z,16.15
2022-09-20T02:03:30.140Z,16.15
2022-09-20T02:03:40.134Z,16.15
2022-09-20T02:03:50.148Z,16.14
2022-09-20T02:04:00.141Z,16.13
2022-09-20T02:04:10.136Z,16.15
2022-09-20T02:04:20.136Z,16.13
2022-09-20T02:04:30.145Z,16.13
2022-09-20T02:04:40.140Z,16.15
2022-09-20T02:04:50.138Z,16.15
2022-09-20T02:05:00.141Z,16.14
2022-09-20T02:05:10.140Z,16.14
2022-09-20T02:05:20.125Z,16.14
2022-09-20T02:05:30.143Z,16.14
2022-09-20T02:05:40.143Z,16.13
2022-09-20T02:05:50.142Z,16.14
2022-09-20T02:06:00.144Z,16.13
2022-09-20T02:06:10.147Z,16.14
2022-09-20T02:06:20.148Z,16.15
2022-09-20T02:06:30.161Z,16.14
2022-09-20T02:06:40.149Z,16.15
2022-09-20T02:06:50.163Z,16.14
2022-09-20T02:07:00.150Z,16.13
2022-09-20T02:07:10.152Z,16.13
2022-09-20T02:07:20.156Z,16.13
2022-09-20T02:07:30.155Z,16.15
2022-09-20T02:07:40.159Z,16.16
2022-09-20T02:07:50.157Z,16.15
2022-09-20T02:08:00.158Z,16.15
2022-09-20T02:08:10.164Z,16.15
2022-09-20T02:08:20.163Z,16.15
2022-09-20T02:08:30.164Z,16.15
2022-09-20T02:08:40.162Z,16.15
2022-09-20T02:08:50.170Z,16.14